createdAt,value
2023-03-06T00:00:55.523Z,2.13
2023-03-06T00:03:23.534Z,1.37
2023-03-06T00:05:50.847Z,3.57
2023-03-06T00:08:21.416Z,1.23
2023-03-06T00:10:48.642Z,1.53
2023-03-06T00:13:21.112Z,1.60
2023-03-06T00:15:49.129Z,2.13
2023-03-06T00:18:16.370Z,2.00
2023-03-06T00:20:44.164Z,1.93
2023-03-06T00:23:12.080Z,2.10
2023-03-06T00:25:43.566Z,1.97
2023-03-06T00:28:12.356Z,2.23
2023-03-06T00:30:39.779Z,1.10
2023-03-06T00:33:07.096Z,1.80
2023-03-06T00:35:34.299Z,3.93
2023-03-06T00:38:01.993Z,1.47
2023-03-06T00:40:29.088Z,1.67
2023-03-06T00:42:56.362Z,1.23
2023-03-06T00:45:23.542Z,1.30
2023-03-06T00:47:50.803Z,2.30
2023-03-06T00:50:18.077Z,1.70
2023-03-06T00:52:45.363Z,1.10
2023-03-06T00:55:12.844Z,1.00
2023-03-06T00:57:40.963Z,1.70
2023-03-06T01:00:10.150Z,0.93
2023-03-06T01:02:37.461Z,1.20
2023-03-06T01:05:04.967Z,1.40
2023-03-06T01:07:34.099Z,1.17
2023-03-06T01:10:01.359Z,2.60
2023-03-06T01:12:28.628Z,1.70
2023-03-06T01:14:55.787Z,1.50
2023-03-06T01:17:23.008Z,1.87
2023-03-06T01:19:50.275Z,1.27
2023-03-06T01:22:17.444Z,1.30
2023-03-06T01:24:44.548Z,1.23
2023-03-06T01:27:11.720Z,1.57
2023-03-06T01:29:38.810Z,1.10
2023-03-06T01:32:06.253Z,1.80
2023-03-06T01:34:33.423Z,1.07
2023-03-06T01:37:00.580Z,1.33
2023-03-06T01:39:28.814Z,1.10
2023-03-06T01:41:56.012Z,1.20
2023-03-06T01:44:23.202Z,1.50
2023-03-06T01:46:50.398Z,1.30
2023-03-06T01:49:35.364Z,1.50
2023-03-06T01:52:07.163Z,1.23
2023-03-06T01:55:11.217Z,1.17
2023-03-06T01:57:48.111Z,2.03
2023-03-06T02:00:20.641Z,1.10
2023-03-06T02:03:05.493Z,1.47
2023-03-06T02:05:33.590Z,0.90
2023-03-06T02:08:02.847Z,1.00
2023-03-06T02:10:30.374Z,1.37
2023-03-06T02:12:57.613Z,0.80
2023-03-06T02:15:28.174Z,0.80
2023-03-06T02:17:55.956Z,0.93
2023-03-06T02:20:39.414Z,0.80
2023-03-06T02:23:50.414Z,2.07
2023-03-06T02:26:18.807Z,0.70
2023-03-06T02:28:45.941Z,1.10
2023-03-06T02:31:26.311Z,0.60
2023-03-06T02:34:15.480Z,0.60
2023-03-06T02:36:52.311Z,0.87
2023-03-06T02:39:24.510Z,0.80
2023-03-06T02:41:52.408Z,0.70
2023-03-06T02:44:23.354Z,0.77
2023-03-06T02:46:50.591Z,0.63
2023-03-06T02:49:17.634Z,0.70
2023-03-06T02:51:44.929Z,1.07
2023-03-06T02:54:12.536Z,0.70
2023-03-06T02:56:39.629Z,0.60
2023-03-06T02:59:07.779Z,0.60
2023-03-06T03:01:35.033Z,0.60
2023-03-06T03:04:03.746Z,0.90
2023-03-06T03:06:30.952Z,0.60
2023-03-06T03:08:58.100Z,0.77
2023-03-06T03:11:25.329Z,0.60
2023-03-06T03:13:52.710Z,0.40
2023-03-06T03:16:23.964Z,0.60
2023-03-06T03:18:51.393Z,0.50
2023-03-06T03:21:21.364Z,0.60
2023-03-06T03:23:49.348Z,0.53
2023-03-06T03:26:19.584Z,0.80
2023-03-06T03:28:57.300Z,0.40
2023-03-06T03:31:24.619Z,0.40
2023-03-06T03:33:52.296Z,0.40
2023-03-06T03:36:21.028Z,0.37
2023-03-06T03:38:49.230Z,0.40
2023-03-06T03:41:16.444Z,0.30
2023-03-06T03:43:43.646Z,0.33
2023-03-06T03:46:11.530Z,0.33
2023-03-06T03:48:39.263Z,0.40
2023-03-06T03:51:12.417Z,0.40
2023-03-06T03:53:44.477Z,0.40
2023-03-06T03:56:14.081Z,0.30
2023-03-06T03:58:50.284Z,0.40
2023-03-06T04:01:18.229Z,0.47
2023-03-06T04:03:45.699Z,0.50
2023-03-06T04:06:15.007Z,0.50
2023-03-06T04:08:42.359Z,0.50
2023-03-06T04:11:11.233Z,0.40
2023-03-06T04:13:38.428Z,0.50
2023-03-06T04:16:06.578Z,0.77
2023-03-06T04:18:35.474Z,0.57
2023-03-06T04:21:05.669Z,0.43
2023-03-06T04:23:33.247Z,0.50
2023-03-06T04:26:00.558Z,0.50
2023-03-06T04:28:28.143Z,0.40
2023-03-06T04:30:55.508Z,0.50
2023-03-06T04:33:23.489Z,0.50
2023-03-06T04:35:50.867Z,0.50
2023-03-06T04:38:23.250Z,0.57
2023-03-06T04:40:50.559Z,1.07
2023-03-06T04:43:18.013Z,0.60
2023-03-06T04:45:45.184Z,0.40
2023-03-06T04:48:17.846Z,0.50
2023-03-06T04:50:45.053Z,0.40
2023-03-06T04:53:14.602Z,0.47
2023-03-06T04:55:41.793Z,0.40
2023-03-06T04:58:10.175Z,0.40
2023-03-06T05:00:37.375Z,0.50
2023-03-06T05:03:04.602Z,0.50
2023-03-06T05:05:31.846Z,0.40
2023-03-06T05:07:58.983Z,0.50
2023-03-06T05:10:26.229Z,0.40
2023-03-06T05:12:53.467Z,0.50
2023-03-06T05:15:20.681Z,0.73
2023-03-06T05:17:47.964Z,0.40
2023-03-06T05:20:17.254Z,0.70
2023-03-06T05:22:44.519Z,0.67
2023-03-06T05:25:11.868Z,0.50
2023-03-06T05:27:39.550Z,0.80
2023-03-06T05:30:08.034Z,0.50
2023-03-06T05:32:35.901Z,0.73
2023-03-06T05:35:04.074Z,0.43
2023-03-06T05:37:31.809Z,0.50
2023-03-06T05:39:59.234Z,0.40
2023-03-06T05:42:28.616Z,0.50
2023-03-06T05:44:55.864Z,0.47
2023-03-06T05:47:23.046Z,0.50
2023-03-06T05:49:50.476Z,0.40
2023-03-06T05:52:17.845Z,0.60
2023-03-06T05:54:45.011Z,0.40
2023-03-06T05:57:12.352Z,0.40
2023-03-06T05:59:39.450Z,0.50
2023-03-06T06:02:06.581Z,0.50
2023-03-06T06:04:33.806Z,0.80
2023-03-06T06:07:01.775Z,0.50
2023-03-06T06:09:29.578Z,0.40
2023-03-06T06:12:03.845Z,0.50
2023-03-06T06:14:33.596Z,0.40
2023-03-06T06:17:00.716Z,0.40
2023-03-06T06:19:31.714Z,0.50
2023-03-06T06:21:59.148Z,0.40
2023-03-06T06:24:27.849Z,0.40
2023-03-06T06:26:57.332Z,0.50
2023-03-06T06:29:25.350Z,0.40
2023-03-06T06:31:53.225Z,0.40
2023-03-06T06:34:21.348Z,0.40
2023-03-06T06:36:51.009Z,0.40
2023-03-06T06:39:22.003Z,0.50
2023-03-06T06:42:06.346Z,0.50
2023-03-06T06:44:38.229Z,0.40
2023-03-06T06:47:22.333Z,0.30
2023-03-06T06:49:55.332Z,0.30
2023-03-06T06:52:24.065Z,0.40
2023-03-06T06:54:52.122Z,0.60
2023-03-06T06:57:19.412Z,0.40
2023-03-06T06:59:46.582Z,0.50
2023-03-06T07:02:16.018Z,0.50
2023-03-06T07:05:02.061Z,0.57
2023-03-06T07:07:31.640Z,0.40
2023-03-06T07:09:58.749Z,0.53
2023-03-06T07:12:25.871Z,1.30
2023-03-06T07:14:53.056Z,0.47
2023-03-06T07:17:20.424Z,0.50
2023-03-06T07:19:48.350Z,0.63
2023-03-06T07:22:15.658Z,0.40
2023-03-06T07:24:42.932Z,0.50
2023-03-06T07:27:10.186Z,0.53
2023-03-06T07:29:37.281Z,0.80
2023-03-06T07:32:04.677Z,1.27
2023-03-06T07:34:31.881Z,0.97
2023-03-06T07:36:59.196Z,0.47
2023-03-06T07:39:28.216Z,0.50
2023-03-06T07:41:55.439Z,1.23
2023-03-06T07:44:22.685Z,1.50
2023-03-06T07:46:49.989Z,0.60
2023-03-06T07:49:17.676Z,0.77
2023-03-06T07:51:45.224Z,0.73
2023-03-06T07:54:12.484Z,3.80
2023-03-06T07:56:39.772Z,0.80
2023-03-06T07:59:07.059Z,1.43
2023-03-06T08:01:36.305Z,1.20
2023-03-06T08:04:04.050Z,1.83
2023-03-06T08:06:32.379Z,1.60
2023-03-06T08:08:59.966Z,0.60
2023-03-06T08:11:30.197Z,1.33
2023-03-06T08:18:15.700Z,1.47
2023-03-06T08:20:42.937Z,2.93
2023-03-06T08:23:11.067Z,1.77
2023-03-06T08:25:38.687Z,0.93
2023-03-06T08:28:06.680Z,1.60
2023-03-06T08:30:34.153Z,1.97
2023-03-06T08:33:02.173Z,3.80
2023-03-06T08:35:29.698Z,1.53
2023-03-06T08:37:57.280Z,3.10
2023-03-06T08:40:27.282Z,3.80
2023-03-06T08:42:54.640Z,3.43
2023-03-06T08:45:22.423Z,4.33
2023-03-06T08:47:49.727Z,2.00
2023-03-06T08:50:17.147Z,2.37
2023-03-06T08:52:44.662Z,3.90
2023-03-06T08:55:13.272Z,4.50
2023-03-06T08:57:41.971Z,2.07
2023-03-06T09:00:11.052Z,2.03
2023-03-06T09:02:38.543Z,1.63
2023-03-06T09:05:09.405Z,2.67
2023-03-06T09:07:36.717Z,2.10
2023-03-06T09:10:04.289Z,2.70
2023-03-06T09:12:40.416Z,2.33
2023-03-06T09:15:16.360Z,3.07
2023-03-06T09:17:43.661Z,2.37
2023-03-06T09:20:12.264Z,1.80
2023-03-06T09:22:39.498Z,2.03
2023-03-06T09:25:07.192Z,1.13
2023-03-06T09:27:34.504Z,6.00
2023-03-06T09:30:01.885Z,2.60
2023-03-06T09:32:29.236Z,1.80
2023-03-06T09:34:56.546Z,2.83
2023-03-06T09:37:24.096Z,2.27
2023-03-06T09:39:51.283Z,3.47
2023-03-06T09:42:22.019Z,1.60
2023-03-06T09:44:55.471Z,2.27
2023-03-06T09:47:45.033Z,2.03
2023-03-06T09:50:37.123Z,3.93
2023-03-06T09:53:19.421Z,3.47
2023-03-06T09:55:56.876Z,4.70
2023-03-06T09:58:27.059Z,3.97
2023-03-06T10:01:01.973Z,3.17
2023-03-06T10:03:50.777Z,2.50
2023-03-06T10:06:37.067Z,5.53
2023-03-06T10:09:45.946Z,1.77
2023-03-06T10:12:25.608Z,2.07
2023-03-06T10:15:06.826Z,1.40
2023-03-06T10:17:37.836Z,2.70
2023-03-06T10:20:33.909Z,2.30
2023-03-06T10:23:22.067Z,1.10
2023-03-06T10:26:09.984Z,1.57
2023-03-06T10:28:44.617Z,4.43
2023-03-06T10:31:23.576Z,2.20
2023-03-06T10:33:51.002Z,1.60
2023-03-06T10:36:20.692Z,4.93
2023-03-06T10:38:58.144Z,2.63
2023-03-06T10:41:35.972Z,2.93
2023-03-06T10:44:03.389Z,2.47
2023-03-06T10:46:33.176Z,1.80
2023-03-06T10:49:03.686Z,1.73
2023-03-06T10:51:31.658Z,1.27
2023-03-06T10:54:19.705Z,1.07
2023-03-06T10:56:48.284Z,2.93
2023-03-06T10:59:25.683Z,2.20
2023-03-06T11:01:58.540Z,1.17
2023-03-06T11:04:33.584Z,1.93
2023-03-06T11:07:21.967Z,0.63
2023-03-06T11:09:58.414Z,1.40
2023-03-06T11:12:40.559Z,1.40
2023-03-06T11:15:19.064Z,4.40
2023-03-06T11:18:04.512Z,3.60
2023-03-06T11:20:52.159Z,3.60
2023-03-06T11:23:38.388Z,2.10
2023-03-06T11:26:31.894Z,6.83
2023-03-06T11:29:06.748Z,4.03
2023-03-06T11:31:44.801Z,6.73
2023-03-06T11:34:12.056Z,3.33
2023-03-06T11:36:43.456Z,2.83
2023-03-06T11:39:36.763Z,1.90
2023-03-06T11:42:16.070Z,4.23
2023-03-06T11:45:10.302Z,4.13
2023-03-06T11:47:48.501Z,3.67
2023-03-06T11:50:25.756Z,3.47
2023-03-06T11:53:03.163Z,3.57
2023-03-06T11:55:39.110Z,5.47
2023-03-06T11:58:51.076Z,2.90
2023-03-06T12:01:36.926Z,2.90
2023-03-06T12:04:28.646Z,2.27
2023-03-06T12:07:21.159Z,2.40
2023-03-06T12:10:23.838Z,2.87
2023-03-06T12:16:23.103Z,0.93
2023-03-06T12:19:27.944Z,1.97
2023-03-06T12:22:19.377Z,1.20
2023-03-06T12:25:07.705Z,0.70
2023-03-06T12:27:55.307Z,0.87
2023-03-06T12:30:33.338Z,1.27
2023-03-06T12:33:23.639Z,2.87
2023-03-06T12:36:38.789Z,0.70
2023-03-06T12:39:18.277Z,1.17
2023-03-06T12:41:51.746Z,1.20
2023-03-06T12:44:36.393Z,1.03
2023-03-06T12:47:09.377Z,3.33
2023-03-06T12:49:41.672Z,3.63
2023-03-06T12:52:18.691Z,1.87
2023-03-06T12:54:49.206Z,2.63
2023-03-06T12:57:16.515Z,1.03
2023-03-06T12:59:48.665Z,1.70
2023-03-06T13:02:54.985Z,2.70
2023-03-06T13:05:56.670Z,4.70
2023-03-06T13:08:26.955Z,1.43
2023-03-06T13:11:20.557Z,0.83
2023-03-06T13:13:49.010Z,1.73
2023-03-06T13:16:16.246Z,1.57
2023-03-06T13:18:43.446Z,1.33
2023-03-06T13:21:43.722Z,0.90
2023-03-06T13:24:18.786Z,1.87
2023-03-06T13:26:45.871Z,2.77
2023-03-06T13:29:35.972Z,2.00
2023-03-06T13:32:03.242Z,2.00
2023-03-06T13:34:47.103Z,3.93
2023-03-06T13:37:15.108Z,1.60
2023-03-06T13:40:00.101Z,1.23
2023-03-06T13:42:56.829Z,1.73
2023-03-06T13:45:38.171Z,2.40
2023-03-06T13:48:30.383Z,1.73
2023-03-06T13:50:55.958Z,1.00
2023-03-06T13:53:52.467Z,1.23
2023-03-06T13:57:00.467Z,1.30
2023-03-06T14:00:03.127Z,3.00
2023-03-06T14:03:08.812Z,0.80
2023-03-06T14:05:48.756Z,1.80
2023-03-06T14:08:16.519Z,0.47
2023-03-06T14:10:45.301Z,0.60
2023-03-06T14:13:38.386Z,0.50
2023-03-06T14:16:22.694Z,0.50
2023-03-06T14:18:52.170Z,0.70
2023-03-06T14:21:32.534Z,0.83
2023-03-06T14:24:02.445Z,0.63
2023-03-06T14:26:34.030Z,0.60
2023-03-06T14:29:02.753Z,0.80
2023-03-06T14:31:34.054Z,0.73
2023-03-06T14:34:07.193Z,1.10
2023-03-06T14:36:36.130Z,1.43
2023-03-06T14:39:09.020Z,1.47
2023-03-06T14:41:37.253Z,2.93
2023-03-06T14:44:18.011Z,1.10
2023-03-06T14:46:47.339Z,2.33
2023-03-06T14:49:16.098Z,2.27
2023-03-06T14:51:49.492Z,0.90
2023-03-06T14:54:24.627Z,0.70
2023-03-06T14:56:56.721Z,0.50
2023-03-06T14:59:29.793Z,1.10
2023-03-06T15:02:04.703Z,0.80
2023-03-06T15:04:45.120Z,3.07
2023-03-06T15:07:27.174Z,0.70
2023-03-06T15:09:55.291Z,3.00
2023-03-06T15:12:31.263Z,2.33
2023-03-06T15:15:25.556Z,1.30
2023-03-06T15:17:53.678Z,1.33
2023-03-06T15:21:02.576Z,1.67
2023-03-06T15:23:42.197Z,1.37
2023-03-06T15:26:24.740Z,1.63
2023-03-06T15:29:10.895Z,0.80
2023-03-06T15:31:43.817Z,2.17
2023-03-06T15:34:11.221Z,1.40
2023-03-06T15:36:48.266Z,1.33
2023-03-06T15:39:32.834Z,2.47
2023-03-06T15:42:26.261Z,3.00
2023-03-06T15:44:55.631Z,1.33
2023-03-06T15:47:24.003Z,4.40
2023-03-06T15:49:53.377Z,6.97
2023-03-06T15:52:23.879Z,2.40
2023-03-06T15:54:51.284Z,1.77
2023-03-06T15:57:24.146Z,3.10
2023-03-06T15:59:52.655Z,4.23
2023-03-06T16:02:22.005Z,3.07
2023-03-06T16:04:49.986Z,4.03
2023-03-06T16:07:17.345Z,3.47
2023-03-06T16:09:44.867Z,2.97
2023-03-06T16:12:17.475Z,2.57
2023-03-06T16:14:46.034Z,2.63
2023-03-06T16:17:13.843Z,2.50
2023-03-06T16:19:41.069Z,3.93
2023-03-06T16:22:08.691Z,2.73
2023-03-06T16:24:37.322Z,3.83
2023-03-06T16:27:05.000Z,2.60
2023-03-06T16:29:32.587Z,2.73
2023-03-06T16:32:01.965Z,2.80
2023-03-06T16:34:29.512Z,3.73
2023-03-06T16:36:56.849Z,2.37
2023-03-06T16:39:24.767Z,6.90
2023-03-06T16:41:52.753Z,3.23
2023-03-06T16:44:21.007Z,2.83
2023-03-06T16:46:50.131Z,2.57
2023-03-06T16:49:24.068Z,3.93
2023-03-06T16:51:53.019Z,2.47
2023-03-06T16:54:22.032Z,2.10
2023-03-06T16:56:49.403Z,3.60
2023-03-06T16:59:16.718Z,4.23
2023-03-06T17:01:44.266Z,3.33
2023-03-06T17:04:12.040Z,3.30
2023-03-06T17:06:42.081Z,4.60
2023-03-06T17:09:11.113Z,2.47
2023-03-06T17:11:38.865Z,1.97
2023-03-06T17:14:07.133Z,2.20
2023-03-06T17:16:34.680Z,3.00
2023-03-06T17:19:07.826Z,3.50
2023-03-06T17:21:35.922Z,4.63
2023-03-06T17:24:03.944Z,3.67
2023-03-06T17:26:31.482Z,4.83
2023-03-06T17:28:58.950Z,2.23
2023-03-06T17:31:27.652Z,3.70
2023-03-06T17:33:59.343Z,2.23
2023-03-06T17:36:31.330Z,3.30
2023-03-06T17:39:00.446Z,4.30
2023-03-06T17:41:28.500Z,1.97
2023-03-06T17:43:56.696Z,3.10
2023-03-06T17:46:24.031Z,3.83
2023-03-06T17:48:51.508Z,2.87
2023-03-06T17:51:18.711Z,2.17
2023-03-06T17:53:45.992Z,2.50
2023-03-06T17:56:14.735Z,1.47
2023-03-06T17:58:42.355Z,2.13
2023-03-06T18:01:15.408Z,2.30
2023-03-06T18:03:45.706Z,3.43
2023-03-06T18:06:13.329Z,3.47
2023-03-06T18:08:41.219Z,2.97
2023-03-06T18:11:10.282Z,2.83
2023-03-06T18:13:43.474Z,3.23
2023-03-06T18:16:13.294Z,6.70
2023-03-06T18:18:40.879Z,4.37
2023-03-06T18:21:10.344Z,3.37
2023-03-06T18:23:38.898Z,3.47
2023-03-06T18:26:25.073Z,1.87
2023-03-06T18:28:55.969Z,2.83
2023-03-06T18:31:29.116Z,3.37
2023-03-06T18:33:59.015Z,3.57
2023-03-06T18:36:28.579Z,4.00
2023-03-06T18:38:56.140Z,2.87
2023-03-06T18:41:23.550Z,3.53
2023-03-06T18:43:58.699Z,2.77
2023-03-06T18:46:32.553Z,4.73
2023-03-06T18:49:00.316Z,5.63
2023-03-06T18:51:28.589Z,3.43
2023-03-06T18:54:00.181Z,5.13
2023-03-06T18:56:27.775Z,2.70
2023-03-06T18:58:55.329Z,3.53
2023-03-06T19:01:22.823Z,3.93
2023-03-06T19:03:50.067Z,3.93
2023-03-06T19:06:17.692Z,4.90
2023-03-06T19:08:45.334Z,6.90
2023-03-06T19:11:17.504Z,3.80
2023-03-06T19:13:44.984Z,3.10
2023-03-06T19:16:21.444Z,3.83
2023-03-06T19:18:48.975Z,4.60
2023-03-06T19:21:18.746Z,2.87
2023-03-06T19:23:46.514Z,5.07
2023-03-06T19:26:13.718Z,3.67
2023-03-06T19:28:42.327Z,3.73
2023-03-06T19:31:25.837Z,4.00
2023-03-06T19:33:54.436Z,4.07
2023-03-06T19:36:27.693Z,2.47
2023-03-06T19:38:59.607Z,5.83
2023-03-06T19:41:27.571Z,3.40
2023-03-06T19:43:58.389Z,4.60
2023-03-06T19:46:27.358Z,3.77
2023-03-06T19:48:59.641Z,2.87
2023-03-06T19:51:28.657Z,3.57
2023-03-06T19:53:57.328Z,5.10
2023-03-06T19:56:30.392Z,1.77
2023-03-06T19:58:58.219Z,2.63
2023-03-06T20:01:27.433Z,4.63
2023-03-06T20:04:05.185Z,3.93
2023-03-06T20:06:36.658Z,6.37
2023-03-06T20:09:08.886Z,10.03
2023-03-06T20:11:36.484Z,8.43
2023-03-06T20:14:05.382Z,7.63
2023-03-06T20:16:36.031Z,5.00
2023-03-06T20:19:03.970Z,18.10
2023-03-06T20:21:38.093Z,5.47
2023-03-06T20:24:07.061Z,3.37
2023-03-06T20:26:36.778Z,1.73
2023-03-06T20:29:07.461Z,3.03
2023-03-06T20:31:37.690Z,1.83
2023-03-06T20:34:08.376Z,3.60
2023-03-06T20:36:40.359Z,3.33
2023-03-06T20:39:14.309Z,1.00
2023-03-06T20:41:41.837Z,1.77
2023-03-06T20:44:13.510Z,1.90
2023-03-06T20:46:41.314Z,2.20
2023-03-06T20:49:09.464Z,1.97
2023-03-06T20:51:39.306Z,1.87
2023-03-06T20:54:08.685Z,1.63
2023-03-06T20:56:41.537Z,1.40
2023-03-06T20:59:11.360Z,1.57
2023-03-06T21:01:42.132Z,3.33
2023-03-06T21:04:10.772Z,3.73
2023-03-06T21:06:45.333Z,2.10
2023-03-06T21:09:17.528Z,3.17
2023-03-06T21:11:44.795Z,1.57
2023-03-06T21:14:13.875Z,2.70
2023-03-06T21:16:41.294Z,2.40
2023-03-06T21:19:09.382Z,2.13
2023-03-06T21:21:36.745Z,1.47
2023-03-06T21:24:04.266Z,1.73
2023-03-06T21:26:33.934Z,1.83
2023-03-06T21:29:02.019Z,1.23
2023-03-06T21:31:30.264Z,3.00
2023-03-06T21:33:58.934Z,1.37
2023-03-06T21:36:27.182Z,3.17
2023-03-06T21:38:55.804Z,0.90
2023-03-06T21:41:26.021Z,1.53
2023-03-06T21:44:01.789Z,2.43
2023-03-06T21:46:31.748Z,3.00
2023-03-06T21:48:59.428Z,2.27
2023-03-06T21:51:27.833Z,1.33
2023-03-06T21:53:55.627Z,1.27
2023-03-06T21:56:25.495Z,2.70
2023-03-06T21:58:53.032Z,4.10
2023-03-06T22:01:27.047Z,3.30
2023-03-06T22:03:54.835Z,1.97
2023-03-06T22:06:25.920Z,2.40
2023-03-06T22:08:55.462Z,1.93
2023-03-06T22:11:24.155Z,1.80
2023-03-06T22:13:53.434Z,3.33
2023-03-06T22:16:21.060Z,2.03
2023-03-06T22:18:50.008Z,3.03
2023-03-06T22:21:19.693Z,1.47
2023-03-06T22:23:55.297Z,1.90
2023-03-06T22:26:22.534Z,4.00
2023-03-06T22:28:50.201Z,2.70
2023-03-06T22:31:24.643Z,5.30
2023-03-06T22:33:53.027Z,1.40
2023-03-06T22:36:20.887Z,2.27
2023-03-06T22:38:48.745Z,3.70
2023-03-06T22:41:17.737Z,3.87
2023-03-06T22:43:45.145Z,2.80
2023-03-06T22:46:17.232Z,1.67
2023-03-06T22:48:45.132Z,1.13
2023-03-06T22:51:15.718Z,1.57
2023-03-06T22:53:50.697Z,0.93
2023-03-06T22:56:20.026Z,1.17
2023-03-06T22:58:48.066Z,1.13
2023-03-06T23:01:15.485Z,2.20
2023-03-06T23:03:45.214Z,1.00
2023-03-06T23:06:33.354Z,0.90
2023-03-06T23:09:06.349Z,1.57
2023-03-06T23:11:52.439Z,0.70
2023-03-06T23:14:39.257Z,1.40
2023-03-06T23:17:25.026Z,0.90
2023-03-06T23:20:12.139Z,0.70
2023-03-06T23:22:57.831Z,1.03
2023-03-06T23:25:43.657Z,2.07
2023-03-06T23:28:11.796Z,1.13
2023-03-06T23:30:39.896Z,1.70
2023-03-06T23:33:07.888Z,0.70
2023-03-06T23:35:36.482Z,0.90
2023-03-06T23:38:04.111Z,0.57
2023-03-06T23:40:34.199Z,0.73
2023-03-06T23:43:01.487Z,0.53
2023-03-06T23:45:28.614Z,1.13
2023-03-06T23:47:56.663Z,1.07
2023-03-06T23:50:24.734Z,0.50
2023-03-06T23:52:55.873Z,0.93
2023-03-06T23:55:23.080Z,2.33
2023-03-06T23:57:50.241Z,2.97
